createdAt,value
2022-12-26T05:01:24.875Z,6.20
2022-12-26T05:04:12.445Z,5.90
2022-12-26T05:06:59.730Z,4.90
2022-12-26T05:09:35.460Z,5.30
2022-12-26T05:12:10.405Z,6.40
2022-12-26T05:14:39.766Z,5.10
2022-12-26T05:17:27.630Z,6.80
2022-12-26T05:20:15.306Z,5.30
2022-12-26T05:23:05.542Z,6.10
2022-12-26T05:26:01.304Z,6.70
2022-12-26T05:28:43.742Z,5.00
2022-12-26T05:31:18.122Z,4.90
2022-12-26T05:34:06.528Z,11.70
2022-12-26T05:36:39.405Z,10.40
2022-12-26T05:39:09.906Z,6.90
2022-12-26T05:41:40.965Z,6.30
2022-12-26T05:44:11.294Z,5.50
2022-12-26T05:46:43.014Z,7.00
2022-12-26T05:49:12.303Z,4.40
2022-12-26T05:51:40.584Z,5.30
2022-12-26T05:54:09.850Z,4.40
2022-12-26T05:56:40.951Z,4.90
2022-12-26T05:59:14.171Z,4.70
2022-12-26T06:01:43.632Z,4.50
2022-12-26T06:04:12.841Z,4.40
2022-12-26T06:06:42.031Z,4.50
2022-12-26T06:09:10.762Z,4.50
2022-12-26T06:11:48.409Z,4.50
2022-12-26T06:14:18.674Z,6.80
2022-12-26T06:16:47.673Z,6.90
2022-12-26T06:19:16.919Z,6.40
2022-12-26T06:21:45.727Z,4.60
2022-12-26T06:24:14.734Z,5.10
2022-12-26T06:26:43.965Z,5.40
2022-12-26T06:29:13.303Z,5.20
2022-12-26T06:31:41.879Z,5.80
2022-12-26T06:34:11.386Z,5.40
2022-12-26T06:36:39.787Z,5.20
2022-12-26T06:39:09.149Z,7.40
2022-12-26T06:41:38.624Z,7.10
2022-12-26T06:44:07.248Z,5.90
2022-12-26T06:46:36.757Z,6.50
2022-12-26T06:49:06.706Z,6.20
2022-12-26T06:51:35.984Z,6.70
2022-12-26T06:54:05.027Z,8.10
2022-12-26T06:56:34.737Z,10.20
2022-12-26T06:59:06.752Z,8.70
2022-12-26T07:01:35.257Z,10.30
2022-12-26T07:04:05.332Z,10.00
2022-12-26T07:06:39.021Z,10.70
2022-12-26T07:09:13.612Z,9.40
2022-12-26T07:11:45.701Z,10.80
2022-12-26T07:14:15.717Z,9.60
2022-12-26T07:16:46.866Z,8.80
2022-12-26T07:19:16.605Z,9.50
2022-12-26T07:21:45.455Z,10.10
2022-12-26T07:24:17.002Z,9.30
2022-12-26T07:26:46.151Z,8.80
2022-12-26T07:29:15.731Z,9.40
2022-12-26T07:31:44.981Z,9.70
2022-12-26T07:34:14.164Z,9.50
2022-12-26T07:36:43.797Z,11.80
2022-12-26T07:39:15.684Z,11.20
2022-12-26T07:42:00.197Z,11.60
2022-12-26T07:44:31.292Z,10.60
2022-12-26T07:47:01.206Z,14.00
2022-12-26T07:49:29.710Z,12.90
2022-12-26T07:51:58.811Z,14.20
2022-12-26T07:54:30.322Z,14.50
2022-12-26T07:57:21.756Z,9.90
2022-12-26T07:59:52.005Z,13.50
2022-12-26T08:02:24.490Z,19.20
2022-12-26T08:04:53.533Z,22.80
2022-12-26T08:07:22.801Z,23.50
2022-12-26T08:09:51.119Z,19.50
2022-12-26T08:12:21.869Z,24.80
2022-12-26T08:14:51.837Z,27.10
2022-12-26T08:17:20.926Z,26.00
2022-12-26T08:19:50.355Z,28.70
2022-12-26T08:22:19.422Z,24.70
2022-12-26T08:24:48.564Z,27.60
2022-12-26T08:27:17.754Z,28.40
2022-12-26T08:29:48.617Z,31.30
2022-12-26T08:32:17.898Z,33.60
2022-12-26T08:34:47.300Z,24.00
2022-12-26T08:37:16.599Z,24.60
2022-12-26T08:39:46.149Z,27.80
2022-12-26T08:42:15.656Z,29.20
2022-12-26T08:44:44.772Z,28.30
2022-12-26T08:47:15.097Z,24.50
2022-12-26T08:49:44.526Z,25.80
2022-12-26T08:52:13.916Z,25.10
2022-12-26T08:54:43.093Z,24.30
2022-12-26T08:57:12.363Z,28.20
2022-12-26T08:59:40.919Z,28.50
2022-12-26T09:02:12.632Z,22.80
2022-12-26T09:04:41.703Z,24.40
2022-12-26T09:07:10.370Z,27.60
2022-12-26T09:09:40.388Z,41.40
2022-12-26T09:12:08.764Z,49.40
2022-12-26T09:14:39.541Z,36.60
2022-12-26T09:17:10.246Z,35.40
2022-12-26T09:19:40.001Z,33.70
2022-12-26T09:22:31.935Z,32.70
2022-12-26T09:25:02.995Z,31.10
2022-12-26T09:27:32.171Z,39.70
2022-12-26T09:30:01.450Z,31.90
2022-12-26T09:32:34.735Z,36.90
2022-12-26T09:35:04.729Z,27.40
2022-12-26T09:37:33.774Z,25.40
2022-12-26T09:40:04.531Z,27.10
2022-12-26T09:42:51.992Z,22.60
2022-12-26T09:45:31.512Z,25.90
2022-12-26T09:48:16.035Z,24.80
2022-12-26T09:50:45.165Z,28.70
2022-12-26T09:53:35.796Z,29.70
2022-12-26T09:56:18.304Z,45.10
2022-12-26T09:59:01.527Z,42.90
2022-12-26T10:01:38.967Z,29.90
2022-12-26T10:04:30.163Z,47.30
2022-12-26T10:07:07.566Z,45.20
2022-12-26T10:09:57.537Z,44.20
2022-12-26T10:13:00.882Z,40.50
2022-12-26T10:16:05.822Z,47.40
2022-12-26T10:18:57.458Z,34.10
2022-12-26T10:21:32.307Z,32.70
2022-12-26T10:24:11.626Z,32.60
2022-12-26T10:26:44.681Z,26.90
2022-12-26T10:29:29.388Z,30.10
2022-12-26T10:32:07.828Z,31.70
2022-12-26T10:34:50.335Z,28.50
2022-12-26T10:37:32.296Z,32.50
2022-12-26T10:40:11.073Z,39.90
2022-12-26T10:42:43.722Z,38.40
2022-12-26T10:45:18.419Z,39.60
2022-12-26T10:47:50.453Z,36.40
2022-12-26T10:50:27.766Z,35.80
2022-12-26T10:53:00.551Z,35.50
2022-12-26T10:55:34.721Z,32.10
2022-12-26T10:58:24.584Z,38.50
2022-12-26T11:00:53.909Z,43.60
2022-12-26T11:03:23.723Z,31.30
2022-12-26T11:06:07.455Z,27.40
2022-12-26T11:08:49.747Z,26.50
2022-12-26T11:11:19.283Z,28.10
2022-12-26T11:14:01.250Z,36.30
2022-12-26T11:16:38.180Z,24.90
2022-12-26T11:19:07.045Z,25.70
2022-12-26T11:21:37.287Z,26.90
2022-12-26T11:24:09.569Z,27.10
2022-12-26T11:26:39.189Z,30.10
2022-12-26T11:29:11.814Z,28.20
2022-12-26T11:31:51.373Z,27.00
2022-12-26T11:34:35.276Z,28.90
2022-12-26T11:39:38.634Z,28.50
2022-12-26T11:42:18.826Z,37.30
2022-12-26T11:44:52.698Z,27.40
2022-12-26T11:50:01.376Z,37.20
2022-12-26T11:52:45.060Z,22.50
2022-12-26T11:55:27.496Z,24.10
2022-12-26T11:58:08.598Z,28.10
2022-12-26T12:00:44.260Z,25.50
2022-12-26T12:03:17.617Z,29.40
2022-12-26T12:06:05.688Z,24.70
2022-12-26T12:08:54.631Z,22.70
2022-12-26T12:12:03.545Z,47.70
2022-12-26T12:15:04.061Z,39.80
2022-12-26T12:17:39.881Z,24.90
2022-12-26T12:20:30.997Z,20.90
2022-12-26T12:23:12.434Z,25.10
2022-12-26T12:26:17.516Z,21.80
2022-12-26T12:29:06.454Z,15.40
2022-12-26T12:32:17.530Z,17.80
2022-12-26T12:34:58.697Z,21.60
2022-12-26T12:37:53.781Z,19.20
2022-12-26T12:43:22.736Z,16.60
2022-12-26T12:46:13.503Z,17.20
2022-12-26T12:49:08.729Z,15.80
2022-12-26T12:51:53.463Z,19.60
2022-12-26T12:54:53.360Z,15.20
2022-12-26T12:57:50.308Z,22.10
2022-12-26T13:00:25.112Z,22.30
2022-12-26T13:03:06.221Z,21.20
2022-12-26T13:06:06.839Z,15.80
2022-12-26T13:08:44.899Z,17.80
2022-12-26T13:11:26.486Z,17.30
2022-12-26T13:14:19.944Z,19.30
2022-12-26T13:17:14.064Z,26.10
2022-12-26T13:20:16.022Z,19.90
2022-12-26T13:23:08.075Z,19.60
2022-12-26T13:25:44.809Z,19.10
2022-12-26T13:28:29.381Z,18.40
2022-12-26T13:30:58.630Z,14.90
2022-12-26T13:33:28.534Z,18.50
2022-12-26T13:36:05.917Z,14.60
2022-12-26T13:38:56.127Z,9.50
2022-12-26T13:41:45.435Z,11.20
2022-12-26T13:44:21.141Z,15.50
2022-12-26T13:46:50.314Z,20.80
2022-12-26T13:49:37.270Z,20.80
2022-12-26T13:52:12.384Z,18.80
2022-12-26T13:55:09.578Z,14.20
2022-12-26T13:57:45.172Z,18.70
2022-12-26T14:00:18.760Z,16.40
2022-12-26T14:03:18.111Z,11.60
2022-12-26T14:06:25.565Z,12.30
2022-12-26T14:09:18.652Z,13.20
2022-12-26T14:11:50.391Z,15.40
2022-12-26T14:14:30.500Z,21.80
2022-12-26T14:17:14.662Z,20.40
2022-12-26T14:20:01.030Z,20.50
2022-12-26T14:22:49.477Z,25.10
2022-12-26T14:25:35.293Z,24.00
2022-12-26T14:28:19.876Z,24.30
2022-12-26T14:30:58.928Z,25.10
2022-12-26T14:33:34.936Z,27.90
2022-12-26T14:36:13.407Z,23.30
2022-12-26T14:39:14.454Z,25.70
2022-12-26T14:42:43.448Z,25.50
2022-12-26T14:45:26.838Z,25.90
2022-12-26T14:47:56.599Z,28.00
2022-12-26T14:50:41.827Z,35.50
2022-12-26T14:53:28.622Z,34.50
2022-12-26T14:56:01.521Z,37.90
2022-12-26T14:58:53.149Z,39.70
2022-12-26T15:01:24.498Z,37.80
2022-12-26T15:04:10.175Z,33.90
2022-12-26T15:06:58.408Z,35.20
2022-12-26T15:09:50.355Z,34.00
2022-12-26T15:12:37.066Z,32.10
2022-12-26T15:15:41.895Z,31.90
2022-12-26T15:18:35.295Z,30.30
2022-12-26T15:21:41.917Z,25.90
2022-12-26T15:25:17.028Z,26.40
2022-12-26T15:27:30.816Z,21.10
2022-12-26T15:30:14.663Z,16.80
2022-12-26T15:33:22.319Z,16.50
2022-12-26T15:36:14.429Z,15.00
2022-12-26T15:38:53.314Z,15.80
2022-12-26T15:41:54.383Z,17.40
2022-12-26T15:44:50.948Z,16.20
2022-12-26T15:47:34.631Z,14.20
2022-12-26T15:50:21.803Z,9.60
2022-12-26T15:53:16.449Z,10.70
2022-12-26T15:56:11.917Z,9.60
2022-12-26T15:59:07.293Z,14.40
2022-12-26T16:01:43.752Z,12.20
2022-12-26T16:04:22.963Z,12.40
2022-12-26T16:07:07.329Z,19.00
2022-12-26T16:09:45.269Z,18.40
2022-12-26T16:12:21.659Z,26.70
2022-12-26T16:15:01.157Z,30.90
2022-12-26T16:17:30.539Z,33.90
2022-12-26T16:19:59.687Z,33.50
2022-12-26T16:22:50.039Z,34.50
2022-12-26T16:25:26.564Z,60.40
2022-12-26T16:27:58.806Z,72.00
2022-12-26T16:30:33.504Z,32.70
2022-12-26T16:33:03.750Z,28.10
2022-12-26T16:35:38.645Z,14.80
2022-12-26T16:38:12.733Z,35.70
2022-12-26T16:40:48.909Z,44.20
2022-12-26T16:43:28.147Z,19.10
2022-12-26T16:46:02.907Z,60.90
2022-12-26T16:48:33.830Z,37.80
2022-12-26T16:51:06.706Z,25.10
2022-12-26T16:53:35.009Z,18.10
2022-12-26T16:56:28.682Z,15.20
2022-12-26T16:59:09.694Z,20.60
2022-12-26T17:01:41.699Z,21.00
2022-12-26T17:04:13.012Z,21.10
2022-12-26T17:06:55.510Z,38.50
2022-12-26T17:09:26.484Z,22.70
2022-12-26T17:12:01.702Z,17.20
2022-12-26T17:14:43.046Z,19.20
2022-12-26T17:17:23.885Z,19.80
2022-12-26T17:19:55.949Z,20.60
2022-12-26T17:22:36.076Z,28.60
2022-12-26T17:25:24.667Z,30.80
2022-12-26T17:28:08.516Z,35.80
2022-12-26T17:30:39.301Z,41.50
2022-12-26T17:33:15.570Z,41.60
2022-12-26T17:43:11.047Z,38.80
2022-12-26T17:45:46.647Z,34.80
2022-12-26T17:48:16.441Z,41.20
2022-12-26T17:50:48.636Z,44.60
2022-12-26T17:53:23.392Z,44.90
2022-12-26T17:55:54.014Z,26.10
2022-12-26T17:58:24.599Z,25.70
2022-12-26T18:00:54.249Z,18.60
2022-12-26T18:03:23.585Z,23.40
2022-12-26T18:05:56.646Z,21.60
2022-12-26T18:08:33.624Z,15.70
2022-12-26T18:11:05.153Z,17.80
2022-12-26T18:13:34.268Z,16.80
2022-12-26T18:16:04.366Z,19.60
2022-12-26T18:18:38.322Z,17.20
2022-12-26T18:21:10.359Z,18.00
2022-12-26T18:23:39.127Z,17.50
2022-12-26T18:26:20.913Z,15.40
2022-12-26T18:28:50.587Z,15.80
2022-12-26T18:31:20.075Z,18.10
2022-12-26T18:33:49.243Z,19.10
2022-12-26T18:36:18.916Z,16.50
2022-12-26T18:38:47.473Z,15.10
2022-12-26T18:41:17.818Z,12.60
2022-12-26T18:43:46.749Z,12.90
2022-12-26T18:46:21.425Z,11.60
2022-12-26T18:48:51.449Z,18.40
2022-12-26T18:51:21.420Z,16.00
2022-12-26T18:53:50.370Z,23.00
2022-12-26T18:56:21.271Z,18.40
2022-12-26T18:58:57.516Z,19.10
2022-12-26T19:01:27.198Z,12.80
2022-12-26T19:03:58.027Z,9.30
2022-12-26T19:06:28.705Z,9.40
2022-12-26T19:08:58.823Z,9.30
2022-12-26T19:11:27.940Z,11.10
2022-12-26T19:13:57.597Z,10.00
2022-12-26T19:16:27.093Z,9.60
2022-12-26T19:18:55.853Z,10.10
2022-12-26T19:21:25.113Z,14.20
2022-12-26T19:23:54.212Z,14.10
2022-12-26T19:26:23.494Z,12.70
2022-12-26T19:28:54.086Z,17.40
2022-12-26T19:31:23.839Z,20.80
2022-12-26T19:33:52.482Z,18.30
2022-12-26T19:36:21.294Z,20.80
2022-12-26T19:38:54.546Z,21.40
2022-12-26T19:41:23.418Z,19.50
2022-12-26T19:43:56.907Z,19.30
2022-12-26T19:46:26.405Z,18.60
2022-12-26T19:48:55.283Z,25.10
2022-12-26T19:51:23.969Z,22.50
2022-12-26T19:53:53.147Z,23.50
2022-12-26T19:56:25.436Z,27.80
2022-12-26T19:58:56.869Z,35.10
2022-12-26T20:01:30.248Z,39.80
2022-12-26T20:04:01.712Z,52.60
2022-12-26T20:06:31.949Z,63.10
2022-12-26T20:09:09.424Z,28.50
2022-12-26T20:11:44.668Z,22.80
2022-12-26T20:14:16.511Z,18.30
2022-12-26T20:17:05.073Z,25.70
2022-12-26T20:19:34.811Z,31.20
2022-12-26T20:22:03.931Z,34.80
2022-12-26T20:24:32.951Z,41.00
2022-12-26T20:27:02.593Z,43.50
2022-12-26T20:29:31.331Z,27.90
2022-12-26T20:32:00.118Z,21.90
2022-12-26T20:34:30.038Z,15.30
2022-12-26T20:36:58.752Z,22.80
2022-12-26T20:39:28.020Z,38.40
2022-12-26T20:41:58.225Z,34.70
2022-12-26T20:44:26.951Z,29.10
2022-12-26T20:46:55.448Z,21.90
2022-12-26T20:49:24.004Z,21.40
2022-12-26T20:51:53.034Z,20.90
2022-12-26T20:54:21.421Z,22.70
2022-12-26T20:56:50.127Z,19.70
2022-12-26T20:59:19.183Z,25.50
2022-12-26T21:01:47.871Z,35.70
2022-12-26T21:04:19.888Z,18.00
2022-12-26T21:06:50.767Z,25.30
2022-12-26T21:09:19.296Z,33.00
2022-12-26T21:11:47.950Z,24.00
2022-12-26T21:14:20.756Z,35.60
2022-12-26T21:16:58.622Z,33.50
2022-12-26T21:19:30.808Z,59.80
2022-12-26T21:21:59.227Z,81.00
2022-12-26T21:24:30.684Z,44.00
2022-12-26T21:26:59.225Z,25.80
2022-12-26T21:29:30.353Z,133.80
2022-12-26T21:31:59.803Z,69.00
2022-12-26T21:34:30.998Z,37.10
2022-12-26T21:37:19.298Z,41.60
2022-12-26T21:39:47.677Z,25.50
2022-12-26T21:42:16.463Z,29.90
2022-12-26T21:44:44.968Z,18.50
2022-12-26T21:47:13.841Z,20.00
2022-12-26T21:49:42.218Z,14.10
2022-12-26T21:52:11.734Z,16.00
2022-12-26T21:54:58.773Z,17.60
2022-12-26T21:57:27.339Z,15.00
2022-12-26T21:59:58.963Z,13.10
2022-12-26T22:02:50.292Z,13.30
2022-12-26T22:05:21.207Z,12.20
2022-12-26T22:07:55.625Z,11.60
2022-12-26T22:10:45.459Z,15.40
2022-12-26T22:13:14.859Z,12.90
2022-12-26T22:16:03.844Z,12.20
2022-12-26T22:18:40.267Z,15.00
2022-12-26T22:21:18.482Z,35.90
2022-12-26T22:23:50.746Z,43.00
2022-12-26T22:26:21.975Z,61.90
2022-12-26T22:28:51.014Z,35.10
2022-12-26T22:31:30.144Z,27.00
2022-12-26T22:34:12.531Z,39.10
2022-12-26T22:36:41.991Z,37.40
2022-12-26T22:39:13.356Z,40.70
2022-12-26T22:41:41.759Z,39.10
2022-12-26T22:44:14.483Z,27.10
2022-12-26T22:46:43.336Z,19.40
2022-12-26T22:49:11.656Z,17.80
2022-12-26T22:51:41.947Z,13.70
2022-12-26T22:54:13.363Z,9.70
2022-12-26T22:56:41.593Z,10.90
2022-12-26T22:59:13.645Z,9.50
2022-12-26T23:01:47.128Z,9.40
2022-12-26T23:04:16.369Z,7.70
2022-12-26T23:06:45.360Z,11.70
2022-12-26T23:09:16.879Z,8.60
2022-12-26T23:12:05.522Z,6.10
2022-12-26T23:14:34.181Z,5.20
2022-12-26T23:17:07.665Z,8.90
2022-12-26T23:20:10.906Z,7.90
2022-12-26T23:22:40.340Z,9.70
2022-12-26T23:25:12.779Z,14.00
2022-12-26T23:28:21.114Z,9.20
2022-12-26T23:30:49.901Z,11.10
2022-12-26T23:33:19.263Z,9.60
2022-12-26T23:35:48.021Z,11.30
2022-12-26T23:38:17.087Z,5.90
2022-12-26T23:40:46.226Z,5.70
2022-12-26T23:43:15.518Z,5.10
2022-12-26T23:45:45.213Z,5.00
2022-12-26T23:48:14.987Z,6.80
2022-12-26T23:50:43.370Z,7.40
2022-12-26T23:53:12.580Z,5.50
2022-12-26T23:55:42.245Z,4.80
2022-12-26T23:58:11.549Z,10.10
